AMCO2: Cimarron River nr Ames 4SW

Data processed at Wed May 22 2019 23:50


All information presented herein is the property of the government of the United States of America and may be revised or deleted at any time without prior notice.
Dissemination of this information without the expressed written consent of the Public Affairs Office, Tulsa District U.S. Army Corps of Engineers is strictly prohibited.
These data are gathered electronically and, as presented, have not undergone any form of quality control. These data are not guaranteed to be valid or correct.
Go to home page.
Go to station list.
Go to home page.

Upstream stations:

Downstream station:
Previous Day
Next Day
Current Day
    
SHEF ID:       AMCO2     Cimarron River nr Ames 4SW
STATION TYPE:  
Regulating: Stage =     7.50, Flow =     8992

               PRECIP     STAGE  RIV-FLOW   VOLTAGE  BAT-LOAD
                   in        ft       cfs      volt      volt
              Ccp-Rev   Ccp-Rev   Ccp-Rev   Ccp-Rev   Ccp-Rev
(US/Central)
05/22 00:00      0.00     11.20     18508     13.12     13.07
05/22 01:00      0.00     11.19     18459     13.12     13.07
05/22 02:00      0.00     11.18     18411     13.07     13.00
05/22 03:00      0.00     11.18     18411     13.07     13.00
05/22 04:00      0.00     11.15     18265     13.07     13.00
05/22 05:00      0.00     11.21     18557     13.00     12.95
05/22 06:00      0.00     11.17     18362     13.00     12.95
05/22 07:00      0.00     11.19     18459     13.07     13.00
05/22 08:00      0.00     11.14     18216     13.42     13.30
05/22 09:00      0.00     11.23     18655     13.88     13.77
05/22 10:00      0.00     11.17     18362     13.65     13.59
05/22 11:00      0.00     11.17     18362     13.65     13.77
05/22 12:00      0.00     11.31     19065     13.53     13.59
05/22 13:00      0.00     11.27     18852     13.65     13.59
05/22 14:00      0.00     11.26     18802     13.65     13.59
05/22 15:00      0.00     11.23     18655     13.53     13.83
05/22 16:00      0.00     11.23     18655     13.77     14.24
05/22 17:00      0.00     11.38     19528     13.53     13.71
05/22 18:00      0.00     11.33     19197     14.30     13.53
05/22 19:00      0.00     11.36     19395     13.94     13.48
05/22 20:00      0.00     11.34     19263     13.42     13.42
05/22 21:00      0.00     11.34     19263     13.24     13.18
05/22 22:00      0.00     11.36     19395     13.18     13.12
05/22 23:00      ----      ----      ----      ----      ----